Time;durP1;ratioP1;P1;durP2;ratioP2;P2;SDS_P1;SDS_P2;PMS_P1;PMS_P2;Temp;Humidity;BMP_temperature;BMP_pressure;BME280_temperature;BME280_humidity;BME280_pressure;Samples;Min_cycle;Max_cycle;Signal;HPM_P1;HPM_P2
2023/06/16 00:00:13;;;;;;;10.23;6.68;;;;;;;15.25;100.00;100965.16;5010860;28;20042;-68
2023/06/16 00:02:41;;;;;;;10.13;6.63;;;;;;;15.28;100.00;100960.44;5010264;28;20038;-69
2023/06/16 00:05:12;;;;;;;12.32;7.10;;;;;;;15.31;100.00;100949.25;5011135;28;20486;-70
2023/06/16 00:07:39;;;;;;;13.10;6.43;;;;;;;15.30;100.00;100953.00;5010705;28;20481;-69
2023/06/16 00:10:07;;;;;;;14.80;6.97;;;;;;;15.29;100.00;100952.13;5010236;28;20456;-68
2023/06/16 00:12:34;;;;;;;12.38;6.25;;;;;;;15.30;100.00;100948.41;5010064;28;20058;-69
2023/06/16 00:15:02;;;;;;;11.68;6.70;;;;;;;15.31;100.00;100949.25;5010477;28;20050;-68
2023/06/16 00:17:28;;;;;;;9.85;6.95;;;;;;;15.29;100.00;100948.59;5010290;28;20050;-69
2023/06/16 00:19:59;;;;;;;12.13;6.15;;;;;;;15.27;100.00;100945.25;5010445;28;20054;-68
2023/06/16 00:22:26;;;;;;;9.98;5.68;;;;;;;15.24;100.00;100941.06;5009347;28;20042;-67
2023/06/16 00:24:53;;;;;;;14.98;6.47;;;;;;;15.27;100.00;100947.97;5010006;28;20049;-69
2023/06/16 00:27:23;;;;;;;9.38;6.32;;;;;;;15.30;100.00;100944.88;5010156;28;20498;-68
2023/06/16 00:29:49;;;;;;;15.15;6.28;;;;;;;15.36;100.00;100941.41;5010292;28;20461;-68
2023/06/16 00:32:16;;;;;;;10.93;6.30;;;;;;;15.33;100.00;100939.06;5010267;28;20046;-68
2023/06/16 00:34:43;;;;;;;13.15;6.80;;;;;;;15.32;100.00;100940.13;5009796;28;20054;-65
2023/06/16 00:37:10;;;;;;;9.02;5.95;;;;;;;15.27;100.00;100942.56;4992569;28;20046;-67
2023/06/16 00:39:36;;;;;;;10.13;6.28;;;;;;;15.20;100.00;100935.19;4990457;28;20062;-69
2023/06/16 00:42:03;;;;;;;15.05;7.97;;;;;;;15.15;100.00;100934.03;4990414;28;20058;-70
2023/06/16 00:44:30;;;;;;;16.33;7.40;;;;;;;15.11;100.00;100938.13;4989725;28;20391;-69
2023/06/16 00:46:59;;;;;;;11.50;7.32;;;;;;;15.16;100.00;100936.56;4989976;28;20399;-69
2023/06/16 00:49:26;;;;;;;12.35;7.72;;;;;;;15.15;100.00;100934.88;4989390;28;20054;-69
2023/06/16 00:51:53;;;;;;;15.65;8.15;;;;;;;15.16;100.00;100935.75;4990357;28;20042;-69
2023/06/16 00:54:20;;;;;;;14.82;7.57;;;;;;;15.08;100.00;100933.94;4990368;28;20043;-69
2023/06/16 00:56:47;;;;;;;8.15;6.85;;;;;;;15.10;100.00;100933.78;4990487;28;20054;-67
2023/06/16 00:59:14;;;;;;;12.13;8.15;;;;;;;15.10;100.00;100931.91;4990280;28;20054;-68
2023/06/16 01:01:40;;;;;;;10.55;7.82;;;;;;;15.15;100.00;100936.75;4990852;28;20511;-68
2023/06/16 01:04:08;;;;;;;15.80;7.05;;;;;;;15.00;100.00;100925.94;4990056;28;20042;-68
2023/06/16 01:07:18;;;;;;;14.88;8.43;;;;;;;15.04;100.00;100929.94;4990253;28;20065;-69
2023/06/16 01:10:13;;;;;;;14.65;8.50;;;;;;;15.01;100.00;100924.91;4989852;28;20042;-71
2023/06/16 01:13:19;;;;;;;11.93;7.72;;;;;;;14.92;100.00;100920.63;4990456;28;20050;-67
2023/06/16 01:15:47;;;;;;;12.88;7.28;;;;;;;14.84;100.00;100916.09;4989983;28;20054;-67
2023/06/16 01:18:15;;;;;;;15.40;7.38;;;;;;;14.70;100.00;100917.75;4990366;28;20101;-68
2023/06/16 01:21:05;;;;;;;11.73;7.05;;;;;;;14.63;100.00;100913.25;4990821;28;20137;-69
2023/06/16 01:23:56;;;;;;;16.08;7.97;;;;;;;14.67;100.00;100914.56;4990158;28;20066;-70
2023/06/16 01:26:27;;;;;;;11.52;6.78;;;;;;;14.71;100.00;100908.66;4989657;28;20072;-71
2023/06/16 01:28:55;;;;;;;11.85;6.72;;;;;;;14.67;100.00;100910.03;4990409;28;20050;-69
2023/06/16 01:31:23;;;;;;;16.88;6.40;;;;;;;14.66;100.00;100911.00;4990579;28;20154;-69
2023/06/16 01:33:51;;;;;;;9.75;6.85;;;;;;;14.65;100.00;100895.84;4990150;28;20046;-69
2023/06/16 01:36:18;;;;;;;17.60;6.90;;;;;;;14.51;100.00;100902.06;5000998;28;20070;-69
2023/06/16 01:38:46;;;;;;;12.63;6.22;;;;;;;14.55;100.00;100900.66;5009198;28;20054;-68
2023/06/16 01:41:15;;;;;;;9.05;5.90;;;;;;;14.58;100.00;100903.00;5010239;28;20049;-69
2023/06/16 01:43:42;;;;;;;12.93;6.97;;;;;;;14.58;100.00;100899.47;5009189;28;20050;-69
2023/06/16 01:46:10;;;;;;;18.63;7.20;;;;;;;14.60;100.00;100906.38;5010733;28;20100;-68
2023/06/16 01:48:36;;;;;;;12.07;6.82;;;;;;;14.57;100.00;100906.72;5013270;28;20548;-70
2023/06/16 01:51:03;;;;;;;13.63;7.00;;;;;;;14.59;100.00;100901.13;5012855;28;20049;-69
2023/06/16 01:53:30;;;;;;;11.77;7.20;;;;;;;14.54;100.00;100904.38;5012982;28;20481;-69
2023/06/16 01:55:56;;;;;;;13.13;6.63;;;;;;;14.52;100.00;100912.66;5012693;28;20510;-70
2023/06/16 01:58:25;;;;;;;9.63;5.93;;;;;;;14.50;100.00;100903.09;5012784;28;20049;-70
2023/06/16 02:01:04;;;;;;;10.35;6.60;;;;;;;14.47;100.00;100898.03;5012836;28;20050;-71
2023/06/16 02:03:44;;;;;;;14.63;7.18;;;;;;;14.48;100.00;100899.72;5012222;28;20073;-72
2023/06/16 02:06:17;;;;;;;13.30;7.57;;;;;;;14.42;100.00;100889.63;5012045;28;20072;-69
2023/06/16 02:08:46;;;;;;;16.38;6.75;;;;;;;14.42;100.00;100889.63;5012762;28;20417;-67
2023/06/16 02:11:13;;;;;;;15.30;7.40;;;;;;;14.42;100.00;100901.25;5013268;28;20050;-69
2023/06/16 02:13:40;;;;;;;23.35;8.35;;;;;;;14.40;100.00;100892.53;5012687;28;20471;-70
2023/06/16 02:16:07;;;;;;;15.13;7.57;;;;;;;14.46;100.00;100899.03;5012445;28;20045;-69
2023/06/16 02:18:34;;;;;;;18.30;7.93;;;;;;;14.48;100.00;100894.31;5012488;28;20058;-70
2023/06/16 02:21:00;;;;;;;13.55;8.55;;;;;;;14.39;100.00;100893.56;5012611;28;20054;-69
2023/06/16 02:23:27;;;;;;;14.38;7.85;;;;;;;14.35;100.00;100897.63;5012667;28;20100;-69
2023/06/16 02:25:53;;;;;;;11.38;8.25;;;;;;;14.28;100.00;100889.41;4994773;28;20046;-69
2023/06/16 02:28:20;;;;;;;15.75;7.97;;;;;;;14.25;100.00;100887.09;5012442;28;20038;-70
2023/06/16 02:30:47;;;;;;;13.45;8.52;;;;;;;14.33;100.00;100883.47;5012541;28;20089;-69
2023/06/16 02:33:15;;;;;;;13.25;8.73;;;;;;;14.35;100.00;100873.31;5012584;28;20100;-63
2023/06/16 02:35:41;;;;;;;18.20;8.77;;;;;;;14.29;100.00;100880.31;5013029;28;20046;-68
2023/06/16 02:38:08;;;;;;;15.55;8.95;;;;;;;14.28;100.00;100869.66;5011613;28;20045;-70
2023/06/16 02:40:35;;;;;;;15.15;8.63;;;;;;;14.23;100.00;100875.63;5011658;28;20544;-69
2023/06/16 02:43:02;;;;;;;18.48;8.88;;;;;;;14.22;100.00;100878.47;5011601;28;20123;-69
2023/06/16 02:45:28;;;;;;;20.70;9.18;;;;;;;14.23;100.00;100872.91;4994506;28;20053;-70
2023/06/16 02:47:55;;;;;;;17.73;7.85;;;;;;;14.28;100.00;100869.66;5012136;28;20509;-70
2023/06/16 02:50:22;;;;;;;15.25;8.75;;;;;;;14.31;100.00;100866.63;5011887;28;20494;-69
2023/06/16 02:52:49;;;;;;;12.63;7.70;;;;;;;14.39;100.00;100874.66;5011982;28;20498;-70
2023/06/16 02:55:16;;;;;;;13.80;7.43;;;;;;;14.50;100.00;100865.28;5011593;28;20041;-70
2023/06/16 02:57:42;;;;;;;15.93;8.70;;;;;;;14.44;100.00;100872.25;5012050;28;20046;-70
2023/06/16 03:00:11;;;;;;;13.43;8.73;;;;;;;14.41;100.00;100869.91;5011798;28;20461;-68
2023/06/16 03:02:38;;;;;;;19.17;9.02;;;;;;;14.36;100.00;100874.16;5011288;28;20460;-71
2023/06/16 03:05:05;;;;;;;15.43;8.20;;;;;;;14.38;100.00;100878.34;5011077;28;20124;-70
2023/06/16 03:07:34;;;;;;;11.43;7.80;;;;;;;14.40;100.00;100875.50;5011448;28;20100;-68
2023/06/16 03:10:01;;;;;;;14.20;7.80;;;;;;;14.36;100.00;100876.84;5011460;28;20555;-70
2023/06/16 03:12:28;;;;;;;15.90;6.47;;;;;;;14.46;100.00;100872.91;5010956;28;20042;-70
2023/06/16 03:14:55;;;;;;;14.50;6.60;;;;;;;14.50;100.00;100873.38;5011493;28;20054;-69
2023/06/16 03:17:21;;;;;;;11.85;7.55;;;;;;;14.56;100.00;100877.19;5011187;28;20088;-70
2023/06/16 03:19:48;;;;;;;10.75;6.25;;;;;;;14.50;100.00;100876.09;5011429;28;20418;-69
2023/06/16 03:22:15;;;;;;;11.60;6.47;;;;;;;14.51;100.00;100878.59;5011086;28;20042;-68
2023/06/16 03:24:43;;;;;;;11.80;5.88;;;;;;;14.59;100.00;100863.34;5011505;28;20096;-68
2023/06/16 03:27:10;;;;;;;10.45;6.00;;;;;;;14.55;100.00;100873.66;5011327;28;20163;-68
2023/06/16 03:29:37;;;;;;;8.68;5.53;;;;;;;14.53;100.00;100867.59;5011338;28;20041;-69
2023/06/16 03:32:05;;;;;;;13.05;6.88;;;;;;;14.56;100.00;100861.00;5011358;28;20054;-68
2023/06/16 03:34:31;;;;;;;10.45;6.38;;;;;;;14.54;100.00;100863.91;5011012;28;20551;-69
2023/06/16 03:36:58;;;;;;;13.82;6.35;;;;;;;14.52;100.00;100868.63;4994237;28;20109;-69
2023/06/16 03:39:25;;;;;;;8.57;6.35;;;;;;;14.50;100.00;100870.69;4992117;28;20097;-68
2023/06/16 03:41:52;;;;;;;9.18;6.38;;;;;;;14.53;100.00;100865.75;4992494;28;20080;-68
2023/06/16 03:44:19;;;;;;;7.78;5.80;;;;;;;14.58;100.00;100873.31;4991987;28;20057;-67
2023/06/16 03:46:45;;;;;;;9.25;6.30;;;;;;;14.59;100.00;100871.44;4991687;28;20077;-67
2023/06/16 03:49:12;;;;;;;10.10;6.40;;;;;;;14.60;100.00;100876.66;4997447;28;20283;-67
2023/06/16 03:51:39;;;;;;;11.50;6.22;;;;;;;14.61;100.00;100878.34;5030980;28;20159;-68
2023/06/16 03:54:06;;;;;;;8.25;5.90;;;;;;;14.64;100.00;100872.56;5029992;28;20045;-69
2023/06/16 03:56:33;;;;;;;9.60;6.97;;;;;;;14.66;100.00;100870.50;5030316;28;20489;-69
2023/06/16 03:58:59;;;;;;;10.77;6.18;;;;;;;14.64;100.00;100882.53;5030116;28;20148;-69
2023/06/16 04:01:26;;;;;;;10.13;7.13;;;;;;;14.68;100.00;100873.88;5030203;28;20049;-68
2023/06/16 04:03:52;;;;;;;8.70;5.90;;;;;;;14.70;100.00;100877.25;5030630;28;20120;-69
2023/06/16 04:06:19;;;;;;;14.43;6.85;;;;;;;14.67;100.00;100877.63;5030050;28;20045;-69
2023/06/16 04:08:46;;;;;;;9.32;5.88;;;;;;;14.63;100.00;100875.44;5029332;28;20064;-68
2023/06/16 04:11:16;;;;;;;10.88;6.97;;;;;;;14.55;100.00;100884.47;5030155;28;20440;-68
2023/06/16 04:13:43;;;;;;;12.25;7.57;;;;;;;14.57;100.00;100879.72;5030416;28;20449;-68
2023/06/16 04:16:10;;;;;;;9.43;7.47;;;;;;;14.60;100.00;100887.47;5030449;28;20067;-68
2023/06/16 04:18:36;;;;;;;13.55;7.32;;;;;;;14.57;100.00;100881.59;5029860;28;20053;-69
2023/06/16 04:21:03;;;;;;;11.65;6.35;;;;;;;14.57;100.00;100884.28;5029886;28;20100;-69
2023/06/16 04:23:29;;;;;;;10.75;6.82;;;;;;;14.58;100.00;100886.81;5029848;28;20620;-69
2023/06/16 04:25:57;;;;;;;16.02;7.43;;;;;;;14.60;100.00;100887.47;5029853;28;20049;-69
2023/06/16 04:28:24;;;;;;;13.82;7.15;;;;;;;14.57;100.00;100893.22;5029677;28;20049;-69
2023/06/16 04:30:52;;;;;;;12.52;7.05;;;;;;;14.75;100.00;100885.66;5030086;28;20045;-68
2023/06/16 04:33:22;;;;;;;11.93;6.57;;;;;;;14.74;100.00;100889.38;5029992;28;20077;-69
2023/06/16 04:35:50;;;;;;;15.57;8.10;;;;;;;14.73;100.00;100879.59;5022201;28;20053;-68
2023/06/16 04:38:18;;;;;;;16.80;7.65;;;;;;;14.81;100.00;100878.69;5018610;28;20045;-68
2023/06/16 04:40:44;;;;;;;11.20;6.68;;;;;;;14.85;100.00;100874.59;5028716;28;20049;-67
2023/06/16 04:43:11;;;;;;;9.15;6.40;;;;;;;14.90;100.00;100882.97;5028666;28;20057;-67
2023/06/16 04:45:37;;;;;;;11.73;6.80;;;;;;;14.84;100.00;100872.88;5028611;28;20096;-69
2023/06/16 04:48:04;;;;;;;9.68;7.75;;;;;;;14.93;100.00;100881.75;5028818;28;20061;-68
2023/06/16 04:50:31;;;;;;;12.23;6.32;;;;;;;14.94;100.00;100872.63;5028931;28;20049;-68
2023/06/16 04:52:58;;;;;;;9.05;6.05;;;;;;;14.99;100.00;100870.22;5029444;28;20060;-68
2023/06/16 04:55:26;;;;;;;13.15;6.07;;;;;;;14.97;100.00;100869.56;5029379;28;20095;-67
2023/06/16 04:57:52;;;;;;;10.63;6.15;;;;;;;14.95;100.00;100866.22;5029816;28;20050;-69
2023/06/16 05:00:19;;;;;;;13.45;6.70;;;;;;;14.83;100.00;100871.22;5011912;28;20125;-69
2023/06/16 05:02:46;;;;;;;13.60;7.35;;;;;;;14.89;100.00;100867.78;5029502;28;20072;-69
2023/06/16 05:05:13;;;;;;;10.43;6.53;;;;;;;14.73;100.00;100868.78;5030452;28;20420;-67
2023/06/16 05:07:39;;;;;;;10.75;7.07;;;;;;;14.64;100.00;100861.78;5030106;28;20045;-69
2023/06/16 05:10:07;;;;;;;9.40;5.97;;;;;;;14.80;100.00;100860.78;5029639;28;20049;-69
2023/06/16 05:12:34;;;;;;;16.75;6.85;;;;;;;14.85;100.00;100862.94;5029472;28;21275;-69
2023/06/16 05:15:00;;;;;;;10.85;6.85;;;;;;;14.92;100.00;100859.31;5029543;28;20405;-68
2023/06/16 05:17:27;;;;;;;10.38;7.07;;;;;;;14.98;100.00;100864.00;5029035;28;20413;-69
2023/06/16 05:19:53;;;;;;;20.08;10.55;;;;;;;14.99;100.00;100864.81;5029961;28;20046;-68
2023/06/16 05:22:23;;;;;;;7.85;6.18;;;;;;;14.99;100.00;100862.13;5032764;28;20041;-68
2023/06/16 05:24:54;;;;;;;9.48;7.38;;;;;;;14.98;100.00;100865.81;5033064;28;20056;-69
2023/06/16 05:27:22;;;;;;;13.30;7.43;;;;;;;15.00;100.00;100863.78;5014941;28;20111;-69
2023/06/16 05:29:54;;;;;;;9.32;6.82;;;;;;;14.95;100.00;100863.53;5033056;28;20501;-68
2023/06/16 05:32:25;;;;;;;13.52;8.20;;;;;;;14.81;100.00;100856.22;5032759;28;20049;-68
2023/06/16 05:34:52;;;;;;;10.55;8.00;;;;;;;14.82;100.00;100858.75;5033126;28;20425;-68
2023/06/16 05:37:20;;;;;;;12.88;6.55;;;;;;;14.88;100.00;100860.72;5012837;28;20046;-69
2023/06/16 05:39:47;;;;;;;18.92;7.97;;;;;;;14.90;100.00;100860.53;5011915;28;20054;-68
2023/06/16 05:42:15;;;;;;;12.65;7.03;;;;;;;14.89;100.00;100861.56;5013320;28;20053;-64
2023/06/16 05:44:42;;;;;;;10.43;7.28;;;;;;;14.93;100.00;100862.84;5013584;28;20050;-70
2023/06/16 05:47:10;;;;;;;9.85;6.90;;;;;;;14.97;100.00;100864.16;5012852;28;20419;-68
2023/06/16 05:49:36;;;;;;;11.70;6.97;;;;;;;14.97;100.00;100873.09;4995303;28;20107;-69
2023/06/16 05:52:05;;;;;;;9.38;5.82;;;;;;;15.03;100.00;100866.13;5011441;28;20045;-69
2023/06/16 05:54:32;;;;;;;12.35;5.78;;;;;;;15.06;100.00;100873.03;5012317;28;20050;-68
2023/06/16 05:57:00;;;;;;;10.52;5.65;;;;;;;15.04;100.00;100872.34;5011563;28;20050;-68
2023/06/16 05:59:27;;;;;;;7.63;5.68;;;;;;;14.92;100.00;100863.88;5012184;28;20049;-68
2023/06/16 06:01:55;;;;;;;11.02;5.85;;;;;;;14.96;100.00;100866.03;4995171;28;20108;-69
2023/06/16 06:04:29;;;;;;;12.15;6.15;;;;;;;14.85;100.00;100862.94;5012331;28;20042;-69
2023/06/16 06:06:57;;;;;;;13.95;5.50;;;;;;;14.84;100.00;100863.97;5012256;28;20052;-69
2023/06/16 06:09:24;;;;;;;14.55;5.53;;;;;;;14.90;100.00;100865.94;5011240;28;20059;-68
2023/06/16 06:11:51;;;;;;;10.82;6.13;;;;;;;14.92;100.00;100870.13;5012330;28;20494;-68
2023/06/16 06:14:17;;;;;;;9.73;5.43;;;;;;;14.93;100.00;100870.97;5011351;28;20069;-67
2023/06/16 06:16:44;;;;;;;6.68;4.93;;;;;;;14.89;100.00;100870.50;5012303;28;20065;-67
2023/06/16 06:19:10;;;;;;;10.35;5.68;;;;;;;15.10;100.00;100872.47;5011903;28;20050;-68
2023/06/16 06:21:38;;;;;;;8.43;4.85;;;;;;;15.13;100.00;100877.50;5012140;28;20042;-69
2023/06/16 06:24:08;;;;;;;6.40;4.70;;;;;;;15.08;100.00;100874.50;5011870;28;20063;-69
2023/06/16 06:26:38;;;;;;;8.13;4.28;;;;;;;15.08;100.00;100874.50;5011840;28;20054;-70
2023/06/16 06:29:05;;;;;;;6.20;4.03;;;;;;;15.01;100.00;100876.25;5012184;28;20108;-70
2023/06/16 06:31:32;;;;;;;6.20;3.90;;;;;;;14.93;100.00;100879.06;5011432;28;20072;-69
2023/06/16 06:33:59;;;;;;;6.00;4.68;;;;;;;14.97;100.00;100883.06;5011477;28;20057;-69
2023/06/16 06:36:27;;;;;;;6.85;4.22;;;;;;;14.89;100.00;100885.88;5011733;28;20046;-69
2023/06/16 06:38:57;;;;;;;6.70;5.53;;;;;;;14.93;100.00;100887.16;5011780;28;20045;-68
2023/06/16 06:41:24;;;;;;;7.40;4.70;;;;;;;14.81;100.00;100878.69;5011716;28;20129;-69
2023/06/16 06:43:52;;;;;;;5.22;4.07;;;;;;;14.66;100.00;100894.81;5012171;28;20053;-70
2023/06/16 06:46:19;;;;;;;12.20;5.15;;;;;;;14.61;100.00;100889.13;5011675;28;20054;-69
2023/06/16 06:48:46;;;;;;;10.10;4.75;;;;;;;14.45;100.00;100887.41;5011428;28;20061;-68
2023/06/16 06:51:16;;;;;;;5.50;4.55;;;;;;;14.36;100.00;100888.53;5011992;28;20100;-67
2023/06/16 06:53:43;;;;;;;11.40;5.25;;;;;;;14.31;100.00;100899.00;5011558;28;20165;-69
2023/06/16 06:56:10;;;;;;;6.32;4.72;;;;;;;14.37;100.00;100905.53;5027608;28;20084;-68
2023/06/16 06:58:36;;;;;;;6.85;5.75;;;;;;;14.37;100.00;100902.84;5030510;28;20099;-68
2023/06/16 07:01:03;;;;;;;18.95;8.73;;;;;;;14.35;100.00;100902.16;5029947;28;20472;-68
2023/06/16 07:03:31;;;;;;;24.75;10.25;;;;;;;14.32;100.00;100911.47;5030548;28;20668;-69
2023/06/16 07:05:57;;;;;;;26.55;9.95;;;;;;;14.45;100.00;100905.47;5031355;28;20137;-69
2023/06/16 07:08:25;;;;;;;15.38;7.35;;;;;;;14.47;100.00;100906.13;5031153;28;20041;-69
2023/06/16 07:10:51;;;;;;;15.73;6.88;;;;;;;14.43;100.00;100907.53;5031174;28;20073;-69
2023/06/16 07:13:18;;;;;;;18.55;7.20;;;;;;;14.45;100.00;100905.47;5028515;28;20111;-73
2023/06/16 07:15:48;;;;;;;14.38;7.10;;;;;;;14.47;100.00;100914.25;5030915;28;20049;-74
2023/06/16 07:18:15;;;;;;;20.52;7.65;;;;;;;14.45;100.00;100911.69;5030671;28;20057;-70
2023/06/16 07:20:41;;;;;;;13.57;7.53;;;;;;;14.34;100.00;100914.84;5030950;28;20103;-75
2023/06/16 07:23:08;;;;;;;14.93;8.10;;;;;;;14.22;100.00;100911.72;5030373;28;20045;-73
2023/06/16 07:25:36;;;;;;;15.48;8.10;;;;;;;14.15;100.00;100918.88;5030254;28;20098;-70
2023/06/16 07:28:04;;;;;;;22.05;8.52;;;;;;;14.10;100.00;100909.63;5030153;28;20049;-70
2023/06/16 07:30:31;;;;;;;10.38;7.65;;;;;;;14.07;100.00;100908.09;5030140;28;20533;-71
2023/06/16 07:32:57;;;;;;;23.65;10.95;;;;;;;14.05;100.00;100918.25;5030469;28;20046;-71
2023/06/16 07:35:24;;;;;;;19.92;9.57;;;;;;;14.00;100.00;100916.06;5026160;28;20417;-70
2023/06/16 07:37:51;;;;;;;11.85;8.75;;;;;;;13.95;100.00;100912.25;5008630;28;20421;-69
2023/06/16 07:40:18;;;;;;;11.98;8.68;;;;;;;13.91;100.00;100902.81;5009525;28;20104;-70
2023/06/16 07:42:45;;;;;;;14.85;9.73;;;;;;;14.05;100.00;100910.16;5010900;28;20050;-65
2023/06/16 07:45:13;;;;;;;14.40;10.27;;;;;;;14.16;100.00;100908.91;5011460;28;20076;-71
2023/06/16 07:47:40;;;;;;;16.02;8.75;;;;;;;14.06;100.00;100907.28;5010652;28;20045;-70
2023/06/16 07:50:08;;;;;;;14.45;10.00;;;;;;;14.10;100.00;100912.31;5010351;28;20041;-70
2023/06/16 07:52:35;;;;;;;15.68;9.98;;;;;;;14.05;100.00;100916.38;5011109;28;20096;-70
2023/06/16 07:55:01;;;;;;;20.48;11.90;;;;;;;14.09;100.00;100914.19;5009736;28;20050;-70
2023/06/16 07:57:28;;;;;;;16.80;9.73;;;;;;;14.11;100.00;100911.28;5010579;28;20057;-69
2023/06/16 07:59:57;;;;;;;17.45;11.63;;;;;;;14.08;100.00;100907.09;5009796;28;20050;-72
2023/06/16 08:02:23;;;;;;;20.48;12.27;;;;;;;14.28;100.00;100905.59;5009180;28;20079;-73
2023/06/16 08:04:51;;;;;;;18.92;11.98;;;;;;;14.29;100.00;100911.84;5010169;28;20501;-73
2023/06/16 08:07:17;;;;;;;17.13;10.73;;;;;;;14.49;100.00;100904.91;5010568;28;20052;-72
2023/06/16 08:09:44;;;;;;;20.33;11.93;;;;;;;14.52;100.00;100906.41;5010768;28;20081;-74
2023/06/16 08:12:11;;;;;;;13.75;11.15;;;;;;;14.61;100.00;100904.50;5010503;28;20069;-72
2023/06/16 08:14:38;;;;;;;18.95;11.23;;;;;;;14.71;100.00;100900.56;5010235;28;20046;-72
2023/06/16 08:17:05;;;;;;;16.40;10.82;;;;;;;14.86;100.00;100902.44;5010345;28;20054;-73
2023/06/16 08:19:31;;;;;;;18.63;11.48;;;;;;;14.99;100.00;100902.66;5009735;28;20042;-73
2023/06/16 08:21:59;;;;;;;15.77;11.60;;;;;;;15.46;100.00;100894.13;4993117;28;20084;-73
2023/06/16 08:24:25;;;;;;;18.70;11.32;;;;;;;15.86;100.00;100891.13;5010422;28;20054;-73
2023/06/16 08:26:52;;;;;;;19.05;10.50;;;;;;;16.12;100.00;100898.69;5009968;28;20054;-73
2023/06/16 08:29:19;;;;;;;13.50;9.55;;;;;;;16.72;100.00;100894.69;5009017;28;20050;-73
2023/06/16 08:31:46;;;;;;;14.88;9.60;;;;;;;17.07;100.00;100890.13;4992272;28;20108;-73
2023/06/16 08:34:13;;;;;;;17.33;10.65;;;;;;;17.27;100.00;100892.13;5010714;28;20046;-70
2023/06/16 08:36:40;;;;;;;16.85;9.30;;;;;;;16.93;100.00;100882.13;5010027;28;20053;-71
2023/06/16 08:39:07;;;;;;;18.23;7.60;;;;;;;16.30;100.00;100890.97;5009433;28;20042;-69
2023/06/16 08:41:36;;;;;;;25.63;7.45;;;;;;;15.54;100.00;100901.34;5008818;28;20128;-71
2023/06/16 08:44:05;;;;;;;25.30;7.57;;;;;;;14.86;100.00;100900.56;5009488;28;20057;-70
2023/06/16 08:46:32;;;;;;;20.70;6.88;;;;;;;14.56;100.00;100898.78;5009471;28;20096;-69
2023/06/16 08:48:59;;;;;;;26.08;7.93;;;;;;;14.35;100.00;100902.16;5009143;28;20054;-71
2023/06/16 08:51:26;;;;;;;19.80;6.85;;;;;;;14.20;100.00;100897.56;5009251;28;20046;-68
2023/06/16 08:54:00;;;;;;;18.70;6.30;;;;;;;14.05;100.00;100905.59;5010103;28;20133;-69
2023/06/16 08:56:31;;;;;;;19.15;7.03;;;;;;;13.80;100.00;100907.63;5012872;28;20041;-69
2023/06/16 08:59:01;;;;;;;9.98;6.30;;;;;;;13.81;100.00;100909.28;5013561;28;20053;-70
2023/06/16 09:01:29;;;;;;;11.07;6.30;;;;;;;13.85;100.00;100908.94;5013449;28;20050;-69
2023/06/16 09:03:56;;;;;;;11.30;6.55;;;;;;;13.84;100.00;100908.09;5012949;28;20111;-70
2023/06/16 09:06:25;;;;;;;25.30;10.88;;;;;;;13.88;100.00;100903.19;5012823;28;20050;-70
2023/06/16 09:08:52;;;;;;;59.83;20.85;;;;;;;13.93;100.00;100911.56;5013570;28;20084;-69
2023/06/16 09:11:23;;;;;;;31.65;12.02;;;;;;;14.00;100.00;100907.97;5012441;28;20046;-69
2023/06/16 09:13:55;;;;;;;30.10;12.13;;;;;;;14.03;100.00;100907.63;5013216;28;20049;-69
2023/06/16 09:16:23;;;;;;;54.75;19.25;;;;;;;13.98;100.00;100911.91;5013070;28;20050;-70
2023/06/16 09:18:49;;;;;;;54.55;19.38;;;;;;;14.05;100.00;100904.75;5012995;28;20058;-70
2023/06/16 09:21:23;;;;;;;51.30;20.05;;;;;;;14.09;100.00;100906.06;5013396;28;20416;-69
2023/06/16 09:23:58;;;;;;;21.50;9.98;;;;;;;14.13;100.00;100903.88;5012540;28;20049;-68
2023/06/16 09:26:30;;;;;;;8.73;5.43;;;;;;;14.19;100.00;100892.34;5013019;28;20045;-70
2023/06/16 09:28:57;;;;;;;19.05;9.20;;;;;;;14.40;100.00;100900.63;5012944;28;20108;-70
2023/06/16 09:31:27;;;;;;;13.20;7.75;;;;;;;14.55;100.00;100906.06;5012492;28;20042;-69
2023/06/16 09:34:03;;;;;;;11.35;6.70;;;;;;;14.53;100.00;100895.47;5013113;28;20050;-69
2023/06/16 09:36:30;;;;;;;10.45;6.28;;;;;;;14.53;100.00;100902.69;4998541;28;20057;-69
2023/06/16 09:38:57;;;;;;;12.38;6.97;;;;;;;14.66;100.00;100894.81;4993781;28;20046;-70
2023/06/16 09:41:24;;;;;;;9.55;6.35;;;;;;;15.14;100.00;100900.78;4993260;28;20101;-70
2023/06/16 09:43:51;;;;;;;6.88;5.28;;;;;;;15.14;100.00;100908.06;4993076;28;20056;-70
2023/06/16 09:46:18;;;;;;;8.98;5.43;;;;;;;15.01;100.00;100909.53;4992732;28;20391;-69
2023/06/16 09:48:49;;;;;;;8.43;5.88;;;;;;;14.90;100.00;100907.28;4994095;28;20545;-71
2023/06/16 09:51:21;;;;;;;9.80;5.28;;;;;;;14.94;100.00;100918.56;4992424;28;20101;-65
2023/06/16 09:53:49;;;;;;;8.23;4.90;;;;;;;15.03;100.00;100914.75;4992198;28;20502;-70
2023/06/16 09:56:17;;;;;;;10.10;4.60;;;;;;;14.99;100.00;100919.69;4992550;28;20061;-70
2023/06/16 09:58:45;;;;;;;6.50;5.28;;;;;;;15.06;100.00;100910.84;4993921;28;20085;-72
2023/06/16 10:01:15;;;;;;;9.73;5.75;;;;;;;15.12;100.00;100919.06;4992859;28;20458;-67
2023/06/16 10:03:43;;;;;;;11.40;5.82;;;;;;;15.19;100.00;100913.75;4992726;28;20047;-71
2023/06/16 10:06:16;;;;;;;10.30;5.53;;;;;;;15.49;100.00;100915.41;4991820;28;20125;-70
2023/06/16 10:08:43;;;;;;;7.75;5.03;;;;;;;15.21;100.00;100914.38;4993129;28;20073;-72
2023/06/16 10:11:14;;;;;;;9.60;5.18;;;;;;;15.11;100.00;100916.53;4992733;28;20074;-71
2023/06/16 10:13:48;;;;;;;10.07;4.75;;;;;;;15.36;100.00;100917.09;4993042;28;20042;-71
2023/06/16 10:16:17;;;;;;;7.60;4.65;;;;;;;15.36;100.00;100925.19;4992404;28;20042;-71
2023/06/16 10:18:46;;;;;;;6.75;4.78;;;;;;;15.39;100.00;100928.34;4992812;28;20045;-72
2023/06/16 10:21:12;;;;;;;9.52;5.30;;;;;;;15.63;100.00;100918.31;4992273;28;20108;-71
2023/06/16 10:23:40;;;;;;;9.32;5.18;;;;;;;15.37;100.00;100924.19;4992478;28;20053;-71
2023/06/16 10:26:08;;;;;;;12.07;5.47;;;;;;;15.55;100.00;100913.81;4992382;28;20051;-71
2023/06/16 10:28:38;;;;;;;8.45;5.63;;;;;;;15.39;100.00;100908.59;4992443;28;20100;-72
2023/06/16 10:31:05;;;;;;;7.40;5.20;;;;;;;15.68;100.00;100910.47;4992910;28;20112;-71
2023/06/16 10:33:59;;;;;;;8.30;5.13;;;;;;;15.39;100.00;100911.31;4992854;28;20046;-72
2023/06/16 10:36:30;;;;;;;11.52;4.55;;;;;;;15.55;100.00;100913.81;5004129;28;20486;-71
2023/06/16 10:39:06;;;;;;;12.50;5.10;;;;;;;15.83;100.00;100910.44;5011192;28;20417;-71
2023/06/16 10:41:34;;;;;;;8.85;4.47;;;;;;;15.82;100.00;100906.06;5010627;28;20161;-72
2023/06/16 10:44:29;;;;;;;10.48;4.68;;;;;;;16.04;100.00;100913.19;5010673;28;20136;-71
2023/06/16 10:47:05;;;;;;;16.42;5.20;;;;;;;16.01;100.00;100912.72;5010504;28;20050;-71
2023/06/16 10:49:32;;;;;;;10.43;5.22;;;;;;;15.88;100.00;100902.59;5010619;28;20046;-71
2023/06/16 10:51:59;;;;;;;9.23;5.15;;;;;;;15.50;100.00;100910.84;5010845;28;20053;-68
2023/06/16 10:54:32;;;;;;;16.67;5.93;;;;;;;15.68;100.00;100905.91;5009975;28;20053;-71
2023/06/16 10:57:08;;;;;;;12.18;5.20;;;;;;;15.56;100.00;100901.97;5010772;28;20053;-71
2023/06/16 11:00:11;;;;;;;17.55;5.43;;;;;;;15.79;100.00;100906.44;5010079;28;20042;-71
2023/06/16 11:02:50;;;;;;;30.17;7.03;;;;;;;15.78;100.00;100897.50;5009950;28;20046;-72
2023/06/16 11:05:22;;;;;;;13.00;5.57;;;;;;;16.04;100.00;100904.22;5010406;28;20045;-69
2023/06/16 11:08:04;;;;;;;20.02;5.82;;;;;;;16.23;100.00;100913.56;4993092;28;20062;-70
2023/06/16 11:10:46;;;;;;;23.97;5.93;;;;;;;16.27;100.00;100904.06;5010388;28;20077;-71
2023/06/16 11:13:13;;;;;;;20.85;5.32;;;;;;;16.52;100.00;100907.22;5010394;28;20113;-70
2023/06/16 11:15:42;;;;;;;12.98;4.85;;;;;;;16.36;100.00;100902.88;5010177;28;20076;-70